Time;durP1;ratioP1;P1;durP2;ratioP2;P2;SDS_P1;SDS_P2;PMS_P1;PMS_P2;Temp;Humidity;BMP_temperature;BMP_pressure;BME280_temperature;BME280_humidity;BME280_pressure;Samples;Min_cycle;Max_cycle;Signal;HPM_P1;HPM_P2
2023/02/09 00:02:11;;;;;;;242.90;90.40;;;;;;;-11.23;100.00;100419.25;52607;1254;1073071;-76
2023/02/09 00:04:38;;;;;;;226.20;87.80;;;;;;;-11.18;100.00;100419.50;52610;1257;1015861;-77
2023/02/09 00:07:04;;;;;;;222.30;83.80;;;;;;;-11.19;100.00;100417.60;52564;1254;1070857;-77
2023/02/09 00:09:31;;;;;;;266.00;98.90;;;;;;;-11.26;100.00;100418.50;52616;1257;1016454;-78
2023/02/09 00:14:43;;;;;;;258.80;94.20;;;;;;;-11.50;100.00;100414.41;52640;1257;1071000;-77
2023/02/09 00:17:10;;;;;;;235.40;90.30;;;;;;;-11.55;100.00;100415.58;52595;1254;1015981;-78
2023/02/09 00:19:37;;;;;;;253.40;94.00;;;;;;;-11.59;100.00;100415.41;52571;1254;1053290;-76
2023/02/09 00:22:03;;;;;;;261.40;97.20;;;;;;;-11.69;100.00;100412.45;52597;1257;1015929;-76
2023/02/09 00:24:30;;;;;;;274.80;107.40;;;;;;;-11.81;100.00;100412.45;52602;1258;1059058;-76
2023/02/09 00:26:56;;;;;;;267.40;107.60;;;;;;;-11.83;100.00;100411.67;52604;1251;1016085;-77
2023/02/09 00:29:23;;;;;;;223.10;83.40;;;;;;;-11.82;100.00;100405.67;52612;1251;1075208;-76
2023/02/09 00:31:50;;;;;;;233.10;88.10;;;;;;;-11.80;100.00;100412.04;52654;1251;1016168;-77
2023/02/09 00:34:17;;;;;;;199.40;72.60;;;;;;;-11.85;100.00;100412.14;52523;1251;1068393;-77
2023/02/09 00:36:43;;;;;;;197.90;77.00;;;;;;;-11.83;100.00;100406.25;52645;1254;1017973;-76
2023/02/09 00:39:10;;;;;;;225.80;81.70;;;;;;;-11.87;100.00;100409.60;52529;1254;1073333;-76
2023/02/09 00:44:22;;;;;;;249.40;93.10;;;;;;;-11.97;100.00;100402.63;52579;1254;1051164;-76
2023/02/09 00:46:48;;;;;;;231.80;80.40;;;;;;;-11.93;100.00;100405.20;52627;1256;1016059;-76
2023/02/09 00:49:15;;;;;;;197.10;78.20;;;;;;;-11.91;100.00;100402.84;52765;1257;1060590;-76
2023/02/09 00:51:41;;;;;;;204.40;77.10;;;;;;;-11.88;100.00;100396.40;52735;1254;1016160;-76
2023/02/09 00:54:08;;;;;;;213.40;77.60;;;;;;;-11.86;100.00;100394.41;54139;1251;1072330;-76
2023/02/09 00:56:35;;;;;;;178.60;68.40;;;;;;;-11.87;100.00;100393.25;53926;1251;1015774;-76
2023/02/09 00:59:01;;;;;;;164.60;66.00;;;;;;;-11.88;100.00;100389.27;52667;1251;1072153;-77
2023/02/09 01:01:28;;;;;;;191.70;74.30;;;;;;;-11.80;100.00;100387.58;52668;1251;1016383;-77
2023/02/09 01:03:55;;;;;;;148.40;56.70;;;;;;;-11.70;100.00;100384.98;52652;1251;1070711;-77
2023/02/09 01:06:21;;;;;;;189.90;78.50;;;;;;;-11.63;100.00;100380.24;52603;1251;1016099;-76
2023/02/09 01:08:49;;;;;;;176.90;71.60;;;;;;;-11.55;100.00;100377.20;52587;1251;1053801;-77
2023/02/09 01:11:16;;;;;;;147.50;54.50;;;;;;;-11.44;100.00;100372.89;52580;1257;1018462;-77
2023/02/09 01:13:43;;;;;;;171.50;71.10;;;;;;;-11.28;100.00;100368.20;52639;1251;1058616;-78
2023/02/09 01:16:14;;;;;;;88.00;37.60;;;;;;;-11.22;100.00;100358.61;52576;1256;1018668;-77
2023/02/09 01:18:41;;;;;;;156.70;62.60;;;;;;;-11.11;100.00;100353.98;52844;1257;1072906;-76
2023/02/09 01:21:09;;;;;;;165.10;62.00;;;;;;;-11.09;100.00;100351.79;52611;1257;1016250;-78
2023/02/09 01:23:36;;;;;;;224.20;87.60;;;;;;;-11.25;100.00;100354.10;52573;1251;1069778;-78
2023/02/09 01:26:03;;;;;;;119.90;45.70;;;;;;;-11.36;100.00;100349.98;52613;1257;1016056;-78
2023/02/09 01:28:30;;;;;;;209.90;79.10;;;;;;;-11.53;100.00;100351.41;52586;1257;1070230;-77
2023/02/09 01:30:56;;;;;;;200.00;82.30;;;;;;;-11.83;100.00;100349.20;52557;1256;1016304;-76
2023/02/09 01:33:23;;;;;;;174.40;64.30;;;;;;;-11.86;100.00;100344.55;52529;1257;1054156;-76
2023/02/09 01:35:55;;;;;;;161.80;63.60;;;;;;;-11.82;100.00;100340.80;52499;1256;1016126;-77
2023/02/09 01:38:22;;;;;;;160.60;62.60;;;;;;;-11.74;100.00;100337.91;52549;1256;1061815;-78
2023/02/09 01:40:49;;;;;;;177.60;70.40;;;;;;;-11.73;100.00;100331.42;52581;1251;1016196;-77
2023/02/09 01:43:16;;;;;;;181.90;65.10;;;;;;;-11.75;100.00;100327.52;52547;1251;1072500;-78
2023/02/09 01:45:44;;;;;;;177.40;67.70;;;;;;;-11.79;100.00;100326.52;52590;1256;1016745;-77
2023/02/09 01:48:11;;;;;;;179.10;64.30;;;;;;;-11.84;100.00;100321.56;52602;1257;1069546;-77
2023/02/09 01:50:38;;;;;;;158.70;62.40;;;;;;;-11.93;100.00;100320.33;52517;1251;1016287;-76
2023/02/09 01:53:05;;;;;;;187.70;71.30;;;;;;;-12.11;100.00;100316.21;52585;1257;1070484;-76
2023/02/09 01:55:34;;;;;;;212.60;71.00;;;;;;;-12.25;100.00;100308.92;52552;1257;1015794;-77
2023/02/09 01:58:19;;;;;;;159.90;65.30;;;;;;;-12.34;100.00;100297.38;52560;1257;1053688;-76
2023/02/09 02:00:46;;;;;;;136.60;54.20;;;;;;;-12.35;100.00;100294.63;52579;1251;1053843;-77
2023/02/09 02:03:16;;;;;;;186.50;76.10;;;;;;;-12.36;100.00;100290.68;52540;1251;1016409;-76
2023/02/09 02:05:43;;;;;;;168.50;69.20;;;;;;;-12.35;100.00;100291.01;52587;1251;1058601;-78
2023/02/09 02:08:17;;;;;;;187.20;68.90;;;;;;;-12.27;100.00;100291.77;52618;1251;1016371;-77
2023/02/09 02:10:44;;;;;;;162.90;67.60;;;;;;;-12.16;100.00;100294.20;52616;1257;1072346;-77
2023/02/09 02:13:10;;;;;;;163.00;61.90;;;;;;;-12.10;100.00;100292.61;52587;1251;1020002;-76
2023/02/09 02:15:58;;;;;;;160.40;64.80;;;;;;;-12.09;100.00;100289.64;52550;1251;1070030;-76
2023/02/09 02:18:51;;;;;;;115.40;47.80;;;;;;;-12.09;100.00;100285.43;52576;1256;1072318;-77
2023/02/09 02:21:42;;;;;;;179.70;69.40;;;;;;;-12.06;100.00;100284.38;52542;1251;1070332;-77
2023/02/09 02:24:19;;;;;;;188.70;72.50;;;;;;;-12.14;100.00;100283.61;52581;1251;1071927;-76
2023/02/09 02:27:06;;;;;;;144.30;55.60;;;;;;;-12.19;100.00;100291.38;52620;1251;1072770;-77
2023/02/09 02:29:54;;;;;;;167.30;60.10;;;;;;;-12.30;100.00;100290.36;52576;1254;1071457;-78
2023/02/09 02:32:26;;;;;;;152.90;57.20;;;;;;;-12.42;100.00;100287.84;52562;1256;1072374;-77
2023/02/09 02:35:42;;;;;;;180.50;67.30;;;;;;;-12.49;100.00;100288.56;52570;1251;1072163;-77
2023/02/09 02:38:27;;;;;;;155.00;58.40;;;;;;;-12.62;100.00;100287.48;52466;1254;1060985;-76
2023/02/09 02:41:14;;;;;;;134.20;49.30;;;;;;;-12.68;100.00;100288.19;52589;1251;1071484;-76
2023/02/09 02:44:07;;;;;;;137.30;51.90;;;;;;;-12.72;100.00;100292.75;52530;1251;1069421;-78
2023/02/09 02:46:36;;;;;;;124.80;51.40;;;;;;;-12.76;100.00;100294.32;52639;1256;1071709;-77
2023/02/09 02:49:08;;;;;;;173.50;60.70;;;;;;;-12.88;100.00;100299.77;52524;1257;1016448;-76
2023/02/09 02:51:38;;;;;;;159.90;61.80;;;;;;;-12.99;100.00;100296.30;52651;1251;1069642;-76
2023/02/09 02:54:08;;;;;;;133.60;53.70;;;;;;;-12.97;100.00;100291.52;52519;1253;1018907;-77
2023/02/09 02:56:37;;;;;;;155.40;54.70;;;;;;;-12.98;100.00;100297.85;52523;1251;1072275;-77
2023/02/09 02:59:05;;;;;;;151.30;58.70;;;;;;;-13.02;100.00;100294.91;52595;1257;1015784;-76
2023/02/09 03:01:36;;;;;;;139.70;55.90;;;;;;;-13.04;100.00;100295.39;52640;1251;1016150;-76
2023/02/09 03:04:03;;;;;;;162.70;59.30;;;;;;;-13.06;100.00;100289.73;52498;1257;1073526;-77
2023/02/09 03:06:33;;;;;;;133.70;54.30;;;;;;;-13.11;100.00;100287.19;52537;1251;1016070;-77
2023/02/09 03:09:00;;;;;;;143.40;52.90;;;;;;;-13.18;100.00;100287.54;52530;1251;1052303;-77
2023/02/09 03:11:33;;;;;;;136.90;52.60;;;;;;;-13.24;100.00;100281.77;52485;1251;1016377;-77
2023/02/09 03:14:38;;;;;;;143.70;47.90;;;;;;;-13.28;100.00;100279.50;52560;1251;1061279;-78
2023/02/09 03:17:24;;;;;;;146.90;55.40;;;;;;;-13.31;100.00;100283.64;52536;1257;1058773;-77
2023/02/09 03:20:10;;;;;;;112.80;41.20;;;;;;;-13.42;100.00;100277.73;52459;1251;1057956;-77
2023/02/09 03:22:41;;;;;;;131.10;49.90;;;;;;;-13.53;100.00;100277.08;52544;1251;1058498;-77
2023/02/09 03:25:14;;;;;;;88.70;35.10;;;;;;;-13.50;100.00;100274.67;52624;1251;1060884;-78
2023/02/09 03:27:43;;;;;;;127.70;51.60;;;;;;;-13.42;100.00;100278.42;52540;1257;1058572;-77
2023/02/09 03:30:11;;;;;;;69.30;29.20;;;;;;;-13.37;100.00;100275.97;52687;1254;1016280;-77
2023/02/09 03:32:38;;;;;;;110.40;39.70;;;;;;;-13.29;100.00;100278.52;52528;1254;1016060;-77
2023/02/09 03:35:06;;;;;;;104.10;40.20;;;;;;;-13.27;100.00;100274.27;52498;1257;1077128;-77
2023/02/09 03:37:32;;;;;;;106.10;41.90;;;;;;;-13.29;100.00;100273.65;52571;1251;1016294;-77
2023/02/09 03:39:59;;;;;;;103.20;41.70;;;;;;;-13.22;100.00;100270.88;52572;1255;1071920;-78
2023/02/09 03:42:25;;;;;;;119.40;44.40;;;;;;;-13.13;100.00;100271.96;52587;1251;1015672;-77
2023/02/09 03:44:52;;;;;;;90.40;36.40;;;;;;;-13.04;100.00;100269.97;52579;1257;1070422;-77
2023/02/09 03:47:18;;;;;;;106.30;42.20;;;;;;;-12.99;100.00;100271.96;52514;1256;1016374;-77
2023/02/09 03:49:45;;;;;;;105.00;40.50;;;;;;;-13.00;100.00;100265.75;52567;1251;1050974;-78
2023/02/09 03:52:13;;;;;;;135.60;48.60;;;;;;;-13.05;100.00;100267.04;52593;1257;1016809;-77
2023/02/09 03:54:39;;;;;;;128.50;47.20;;;;;;;-13.13;100.00;100269.35;52590;1254;1058560;-78
2023/02/09 03:57:06;;;;;;;117.80;47.50;;;;;;;-13.14;100.00;100265.75;52600;1251;1015710;-78
2023/02/09 03:59:39;;;;;;;116.40;45.80;;;;;;;-13.16;100.00;100262.91;52345;1251;1139017;-78
2023/02/09 04:02:06;;;;;;;113.80;43.30;;;;;;;-13.20;100.00;100266.08;52615;1257;1073240;-78
2023/02/09 04:04:33;;;;;;;105.90;40.00;;;;;;;-13.22;100.00;100265.85;52591;1251;1015656;-78
2023/02/09 04:07:00;;;;;;;115.30;39.60;;;;;;;-13.26;100.00;100267.39;52599;1251;1068344;-77
2023/02/09 04:09:27;;;;;;;106.10;46.80;;;;;;;-13.29;100.00;100260.77;52514;1251;1016208;-77
2023/02/09 04:11:53;;;;;;;104.40;39.00;;;;;;;-13.28;100.00;100256.54;52587;1251;1073531;-77
2023/02/09 04:14:20;;;;;;;109.00;44.60;;;;;;;-13.25;100.00;100253.11;52572;1251;1016377;-77
2023/02/09 04:16:47;;;;;;;114.20;45.30;;;;;;;-13.29;100.00;100252.95;52581;1251;1050222;-78
2023/02/09 04:19:13;;;;;;;113.80;44.30;;;;;;;-13.27;100.00;100256.67;52547;1251;1016135;-76
2023/02/09 04:21:40;;;;;;;115.00;47.80;;;;;;;-13.29;100.00;100252.45;52588;1256;1059293;-78
2023/02/09 04:24:06;;;;;;;107.90;39.70;;;;;;;-13.29;100.00;100247.61;52572;1251;1015995;-77
2023/02/09 04:26:33;;;;;;;122.70;45.80;;;;;;;-13.31;100.00;100245.39;52551;1251;1074888;-77
2023/02/09 04:29:00;;;;;;;116.00;45.00;;;;;;;-13.34;100.00;100244.85;52618;1251;1016540;-78
2023/02/09 04:31:26;;;;;;;117.80;42.50;;;;;;;-13.32;100.00;100246.85;52508;1251;1070740;-77
2023/02/09 04:33:53;;;;;;;102.70;40.00;;;;;;;-13.38;100.00;100248.16;52545;1251;1016345;-78
2023/02/09 04:36:22;;;;;;;90.70;39.10;;;;;;;-13.45;100.00;100247.64;52593;1256;1073025;-77
2023/02/09 04:38:49;;;;;;;;;;;;;;;-13.49;100.00;100244.19;52547;1257;1016039;-78
2023/02/09 04:41:15;;;;;;;73.40;31.80;;;;;;;-13.47;100.00;100241.83;52544;1256;1018150;-78
2023/02/09 04:43:42;;;;;;;98.10;35.50;;;;;;;-13.45;100.00;100237.20;52562;1251;1050456;-78
2023/02/09 04:46:15;;;;;;;95.10;37.90;;;;;;;-13.45;100.00;100231.09;52613;1251;1016082;-78
2023/02/09 04:48:42;;;;;;;96.90;36.00;;;;;;;-13.42;100.00;100229.20;52583;1251;1057776;-77
2023/02/09 04:51:09;;;;;;;101.20;38.20;;;;;;;-13.43;100.00;100231.89;52583;1257;1015676;-77
2023/02/09 04:53:36;;;;;;;106.80;38.70;;;;;;;-13.43;100.00;100231.90;52569;1256;1075558;-77
2023/02/09 04:56:03;;;;;;;113.10;42.00;;;;;;;-13.45;100.00;100229.73;52579;1251;1016124;-78
2023/02/09 05:01:21;;;;;;;89.60;39.90;;;;;;;-13.57;100.00;100236.40;52570;1251;1072984;-78
2023/02/09 05:03:47;;;;;;;68.00;28.70;;;;;;;-13.57;100.00;100236.75;52563;1251;1070103;-77
2023/02/09 05:06:14;;;;;;;110.60;46.80;;;;;;;-13.61;100.00;100236.95;52582;1251;1015935;-77
2023/02/09 05:08:40;;;;;;;113.30;44.90;;;;;;;-13.66;100.00;100235.11;52584;1255;1073206;-78
2023/02/09 05:11:07;;;;;;;101.30;42.50;;;;;;;-13.70;100.00;100234.94;52513;1251;1016042;-78
2023/02/09 05:13:33;;;;;;;127.10;46.00;;;;;;;-13.67;100.00;100233.39;52559;1257;1050830;-77
2023/02/09 05:16:07;;;;;;;137.20;50.20;;;;;;;-13.66;100.00;100236.33;52627;1251;1016174;-78
2023/02/09 05:18:33;;;;;;;108.60;38.50;;;;;;;-13.71;100.00;100234.45;52559;1256;1058266;-77
2023/02/09 05:21:00;;;;;;;114.60;41.60;;;;;;;-13.70;100.00;100234.78;52596;1256;1016425;-77
2023/02/09 05:23:27;;;;;;;106.40;39.80;;;;;;;-13.76;100.00;100232.24;52594;1251;1076115;-77
2023/02/09 05:25:55;;;;;;;129.40;48.50;;;;;;;-13.79;100.00;100233.27;52627;1251;1016073;-77
2023/02/09 05:28:22;;;;;;;124.00;43.40;;;;;;;-13.82;100.00;100234.13;52545;1251;1071346;-77
2023/02/09 05:30:52;;;;;;;137.70;47.50;;;;;;;-13.84;100.00;100231.45;53393;1251;1015655;-78
2023/02/09 05:33:22;;;;;;;91.60;38.60;;;;;;;-13.81;100.00;100226.10;52611;1251;1072008;-77
2023/02/09 05:35:50;;;;;;;102.50;41.40;;;;;;;-13.79;100.00;100225.45;52566;1251;1074865;-78
2023/02/09 05:38:17;;;;;;;99.70;43.30;;;;;;;-13.81;100.00;100220.50;52638;1251;1016427;-77
2023/02/09 05:40:43;;;;;;;102.30;45.20;;;;;;;-13.83;100.00;100222.20;53475;1251;1051105;-77
2023/02/09 05:43:10;;;;;;;84.10;33.80;;;;;;;-13.82;100.00;100221.29;53150;1253;1016058;-77
2023/02/09 05:45:37;;;;;;;100.70;39.60;;;;;;;-13.80;100.00;100218.05;52585;1253;1061484;-77
2023/02/09 05:48:04;;;;;;;122.40;41.70;;;;;;;-13.77;100.00;100219.45;52633;1254;1016561;-78
2023/02/09 05:50:30;;;;;;;111.20;42.90;;;;;;;-13.74;100.00;100217.40;53448;1254;1075024;-78
2023/02/09 05:52:58;;;;;;;99.00;39.40;;;;;;;-13.73;100.00;100221.00;53003;1251;1015941;-77
2023/02/09 05:55:25;;;;;;;89.60;36.60;;;;;;;-13.73;100.00;100221.00;54035;1256;1068871;-77
2023/02/09 05:57:52;;;;;;;104.60;37.20;;;;;;;-13.78;100.00;100224.20;53320;1251;1016472;-76
2023/02/09 06:00:19;;;;;;;102.60;40.70;;;;;;;-13.84;100.00;100226.38;53259;1251;1071492;-78
2023/02/09 06:02:46;;;;;;;117.20;47.90;;;;;;;-13.86;100.00;100225.79;53265;1251;1016268;-78
2023/02/09 06:05:13;;;;;;;91.20;36.00;;;;;;;-13.85;100.00;100226.60;52897;1254;1051323;-78
2023/02/09 06:07:40;;;;;;;90.70;37.00;;;;;;;-13.82;100.00;100228.55;52766;1251;1016464;-79
2023/02/09 06:10:07;;;;;;;80.50;33.30;;;;;;;-13.78;100.00;100230.46;53466;1251;1059307;-79
2023/02/09 06:12:33;;;;;;;68.90;29.20;;;;;;;-13.81;100.00;100226.77;52853;1251;1016206;-78
2023/02/09 06:15:00;;;;;;;64.60;30.10;;;;;;;-13.89;100.00;100226.09;52888;1252;1073384;-79
2023/02/09 06:17:27;;;;;;;92.90;39.70;;;;;;;-13.88;100.00;100226.23;52621;1256;1016369;-78
2023/02/09 06:19:53;;;;;;;75.30;33.20;;;;;;;-13.82;100.00;100228.36;53085;1251;1071725;-78
2023/02/09 06:22:20;;;;;;;94.60;39.80;;;;;;;-13.79;100.00;100231.35;52764;1251;1016531;-79
2023/02/09 06:24:47;;;;;;;111.30;41.50;;;;;;;-13.78;100.00;100228.34;52605;1254;1071551;-79
2023/02/09 06:27:14;;;;;;;90.00;36.00;;;;;;;-13.74;100.00;100228.36;52827;1251;1015812;-79
2023/02/09 06:29:40;;;;;;;106.00;43.90;;;;;;;-13.75;100.00;100228.41;53152;1253;1053636;-79
2023/02/09 06:32:07;;;;;;;104.70;41.00;;;;;;;-13.72;100.00;100227.02;52613;1253;1016381;-79
2023/02/09 06:34:34;;;;;;;95.50;35.90;;;;;;;-13.67;100.00;100228.70;53019;1253;1060967;-79
2023/02/09 06:37:00;;;;;;;139.80;44.20;;;;;;;-13.61;100.00;100231.90;52694;1252;1015943;-79
2023/02/09 06:39:28;;;;;;;123.00;47.10;;;;;;;-13.59;100.00;100230.42;53057;1252;1075508;-79
2023/02/09 06:41:55;;;;;;;109.00;44.50;;;;;;;-13.55;100.00;100222.58;52911;1256;1016352;-75
2023/02/09 06:44:21;;;;;;;133.20;50.20;;;;;;;-13.53;100.00;100225.97;52696;1251;1071768;-78
2023/02/09 06:46:48;;;;;;;166.10;62.40;;;;;;;-13.55;100.00;100220.52;52933;1253;1016559;-78
2023/02/09 06:49:14;;;;;;;220.40;80.80;;;;;;;-13.55;100.00;100219.65;52658;1255;1073171;-78
2023/02/09 06:51:41;;;;;;;202.10;79.60;;;;;;;-13.60;100.00;100219.14;52987;1253;1018225;-78
2023/02/09 06:54:08;;;;;;;220.60;79.20;;;;;;;-13.57;100.00;100214.32;53094;1251;1053345;-78
2023/02/09 06:56:34;;;;;;;139.60;50.80;;;;;;;-13.50;100.00;100210.69;53237;1251;1016698;-78
2023/02/09 06:59:01;;;;;;;205.20;76.00;;;;;;;-13.41;100.00;100210.05;53464;1251;1058045;-80
2023/02/09 07:01:28;;;;;;;180.60;65.30;;;;;;;-13.35;100.00;100218.12;53729;1251;1015305;-75
2023/02/09 07:03:54;;;;;;;167.40;64.00;;;;;;;-13.22;100.00;100214.33;53961;1251;1074107;-79
2023/02/09 07:06:21;;;;;;;180.90;68.20;;;;;;;-13.08;100.00;100209.09;53369;1251;1016177;-76
2023/02/09 07:08:48;;;;;;;177.30;70.40;;;;;;;-12.91;100.00;100208.04;52923;1251;1069514;-76
2023/02/09 07:11:15;;;;;;;172.50;66.70;;;;;;;-12.70;100.00;100210.28;54016;1251;1016112;-76
2023/02/09 07:13:42;;;;;;;154.00;58.70;;;;;;;-12.44;100.00;100212.16;54013;1251;1070486;-76
2023/02/09 07:16:09;;;;;;;171.80;70.90;;;;;;;-12.25;100.00;100207.66;52909;1256;1015590;-77
2023/02/09 07:18:36;;;;;;;184.40;70.10;;;;;;;-12.22;100.00;100211.20;52746;1251;1050742;-75
2023/02/09 07:21:07;;;;;;;168.30;64.90;;;;;;;-12.07;100.00;100207.05;53307;1251;1015844;-76
2023/02/09 07:23:34;;;;;;;167.40;71.10;;;;;;;-11.75;100.00;100202.16;53212;1251;1059096;-77
2023/02/09 07:26:06;;;;;;;235.00;102.80;;;;;;;-11.41;100.00;100193.02;52972;1254;1017410;-77
2023/02/09 07:28:33;;;;;;;148.30;61.10;;;;;;;-11.23;99.40;100194.27;52693;1251;1072401;-77
2023/02/09 07:31:02;;;;;;;187.90;84.00;;;;;;;-11.16;99.71;100195.60;53375;1251;1017598;-76
2023/02/09 07:33:29;;;;;;;;;;;;;;;-11.21;99.53;100199.21;52879;1251;1069641;-78
2023/02/09 07:35:56;;;;;;;146.00;56.80;;;;;;;-11.15;100.00;100207.06;52735;1254;1016126;-77
2023/02/09 07:38:22;;;;;;;143.00;60.90;;;;;;;-11.11;100.00;100206.52;52945;1251;1073699;-78
2023/02/09 07:40:49;;;;;;;161.70;70.50;;;;;;;-11.07;100.00;100210.44;53618;1251;1015848;-77
2023/02/09 07:43:16;;;;;;;177.80;76.90;;;;;;;-11.07;100.00;100208.20;53918;1256;1053512;-77
2023/02/09 07:45:42;;;;;;;160.20;70.20;;;;;;;-11.03;100.00;100207.44;53944;1257;1016036;-77
2023/02/09 07:48:09;;;;;;;168.10;73.40;;;;;;;-10.94;100.00;100206.52;54027;1251;1058960;-77
2023/02/09 07:50:36;;;;;;;163.90;70.00;;;;;;;-10.82;100.00;100206.48;53905;1251;1015785;-77
2023/02/09 07:53:03;;;;;;;205.70;85.00;;;;;;;-10.73;100.00;100207.05;54011;1251;1073902;-78
2023/02/09 07:55:30;;;;;;;166.60;72.70;;;;;;;-10.64;100.00;100207.16;53628;1251;1015245;-78
2023/02/09 07:57:56;;;;;;;207.00;83.30;;;;;;;-10.53;100.00;100207.90;53262;1251;1069667;-78
2023/02/09 08:00:24;;;;;;;163.50;78.50;;;;;;;-10.43;100.00;100208.52;54067;1251;1015832;-78
2023/02/09 08:02:51;;;;;;;184.20;80.10;;;;;;;-10.30;100.00;100205.11;53690;1257;1071472;-77
2023/02/09 08:05:25;;;;;;;165.80;73.00;;;;;;;-10.12;100.00;100202.37;53197;1251;1016191;-78
2023/02/09 08:07:52;;;;;;;176.00;75.90;;;;;;;-9.94;100.00;100203.70;53140;1253;1050476;-79
2023/02/09 08:10:18;;;;;;;163.60;65.70;;;;;;;-9.77;100.00;100206.64;53512;1251;1015789;-78
2023/02/09 08:13:03;;;;;;;156.40;68.60;;;;;;;-9.60;100.00;100207.46;53165;1251;1058529;-77
2023/02/09 08:15:40;;;;;;;168.20;73.80;;;;;;;-9.41;100.00;100203.30;53474;1251;1058802;-78
2023/02/09 08:18:13;;;;;;;160.70;73.60;;;;;;;-9.28;100.00;100196.86;53486;1254;1058411;-78
2023/02/09 08:20:40;;;;;;;150.90;66.20;;;;;;;-9.16;100.00;100194.44;53406;1257;1059557;-77
2023/02/09 08:23:11;;;;;;;141.50;62.50;;;;;;;-8.99;100.00;100188.92;52955;1251;1016862;-78
2023/02/09 08:25:37;;;;;;;136.10;62.70;;;;;;;-8.83;100.00;100190.48;53967;1251;1073273;-77
2023/02/09 08:28:04;;;;;;;121.10;52.60;;;;;;;-8.69;100.00;100186.73;54096;1251;1014897;-77
2023/02/09 08:30:32;;;;;;;79.60;34.50;;;;;;;-8.51;100.00;100186.02;54046;1251;1069952;-77
2023/02/09 08:32:58;;;;;;;103.20;36.50;;;;;;;-8.28;100.00;100183.01;53761;1251;1016278;-77
2023/02/09 08:35:25;;;;;;;59.60;27.70;;;;;;;-8.06;100.00;100182.96;52702;1250;1073203;-78
2023/02/09 08:37:51;;;;;;;113.30;48.40;;;;;;;-7.84;100.00;100183.30;52813;1256;1016243;-77
2023/02/09 08:40:18;;;;;;;76.10;35.80;;;;;;;-7.68;100.00;100173.90;53500;1251;1052187;-78
2023/02/09 08:42:45;;;;;;;42.50;24.80;;;;;;;-7.53;100.00;100162.13;54012;1251;1016102;-77
2023/02/09 08:45:12;;;;;;;48.00;24.70;;;;;;;-7.37;100.00;100160.61;53136;1251;1059003;-77
2023/02/09 08:47:38;;;;;;;285.80;137.60;;;;;;;-7.25;100.00;100158.44;52741;1251;1015566;-78
2023/02/09 08:50:05;;;;;;;115.90;51.70;;;;;;;-7.13;100.00;100156.63;53085;1255;1071653;-78
2023/02/09 08:52:34;;;;;;;151.70;70.60;;;;;;;-7.03;100.00;100153.31;52841;1251;1016437;-78
2023/02/09 08:55:01;;;;;;;157.40;68.90;;;;;;;-6.92;100.00;100151.96;52900;1251;1069384;-77
2023/02/09 08:57:28;;;;;;;241.50;130.00;;;;;;;-6.84;100.00;100148.65;52968;1253;1016405;-77
2023/02/09 08:59:55;;;;;;;106.50;51.10;;;;;;;-6.76;100.00;100145.94;53224;1255;1071333;-77
2023/02/09 09:02:22;;;;;;;107.00;46.50;;;;;;;-6.64;100.00;100142.52;53080;1254;1015622;-76
2023/02/09 09:04:49;;;;;;;92.50;47.10;;;;;;;-6.55;100.00;100140.27;52736;1255;1050180;-76
2023/02/09 09:07:15;;;;;;;98.30;42.30;;;;;;;-6.44;100.00;100140.27;52786;1256;1016258;-78
2023/02/09 09:09:42;;;;;;;88.10;40.00;;;;;;;-6.34;100.00;100140.96;53274;1251;1058913;-76
2023/02/09 09:12:09;;;;;;;85.10;40.20;;;;;;;-6.20;100.00;100143.73;52758;1251;1016119;-76
2023/02/09 09:14:35;;;;;;;78.50;36.50;;;;;;;-6.08;100.00;100143.47;53100;1254;1075507;-76
2023/02/09 09:17:02;;;;;;;96.00;42.30;;;;;;;-6.04;100.00;100143.61;53990;1252;1015936;-78
2023/02/09 09:19:29;;;;;;;75.50;31.60;;;;;;;-5.92;100.00;100143.42;53771;1252;1069203;-78
2023/02/09 09:21:57;;;;;;;74.90;34.30;;;;;;;-5.76;100.00;100137.84;53979;1253;1015949;-77
2023/02/09 09:24:27;;;;;;;88.30;45.30;;;;;;;-5.63;100.00;100133.92;53983;1253;1071417;-77
2023/02/09 09:26:54;;;;;;;90.30;39.30;;;;;;;-5.50;100.00;100129.39;53440;1251;1016000;-78
2023/02/09 09:29:21;;;;;;;109.40;47.60;;;;;;;-5.35;100.00;100132.36;52889;1251;1016400;-78
2023/02/09 09:31:48;;;;;;;76.90;34.50;;;;;;;-5.22;100.00;100131.45;53775;1251;1051180;-77
2023/02/09 09:34:14;;;;;;;71.90;33.60;;;;;;;-5.07;100.00;100132.17;52830;1251;1016197;-77
2023/02/09 09:36:41;;;;;;;87.10;38.20;;;;;;;-4.95;100.00;100137.81;52685;1252;1061352;-76
2023/02/09 09:39:08;;;;;;;81.60;36.70;;;;;;;-4.80;100.00;100136.38;53307;1251;1015921;-78
2023/02/09 09:41:36;;;;;;;111.30;45.40;;;;;;;-4.66;100.00;100135.67;54091;1254;1073189;-77
2023/02/09 09:44:08;;;;;;;95.50;43.50;;;;;;;-4.49;100.00;100133.36;54070;1256;1015418;-77
2023/02/09 09:46:36;;;;;;;103.40;48.30;;;;;;;-4.29;100.00;100133.59;54066;1251;1070440;-78
2023/02/09 09:49:03;;;;;;;106.90;49.30;;;;;;;-4.04;100.00;100136.33;54092;1251;1016240;-78
2023/02/09 09:51:39;;;;;;;88.90;37.50;;;;;;;-3.84;100.00;100132.61;54072;1251;1071303;-77
2023/02/09 09:54:11;;;;;;;73.00;33.40;;;;;;;-3.66;100.00;100126.39;52969;1255;1062793;-78
2023/02/09 09:56:39;;;;;;;59.30;27.20;;;;;;;-3.50;100.00;100130.73;52763;1251;1070741;-77
2023/02/09 09:59:18;;;;;;;54.80;26.00;;;;;;;-3.39;100.00;100130.96;52931;1251;1016063;-78
2023/02/09 10:01:46;;;;;;;68.00;28.60;;;;;;;-3.23;100.00;100126.66;53032;1257;1043339;-77
2023/02/09 10:04:13;;;;;;;81.10;34.10;;;;;;;-3.05;100.00;100126.89;52730;1256;1016088;-77
2023/02/09 10:06:41;;;;;;;97.10;41.40;;;;;;;-2.88;99.14;100125.09;52976;1257;1059046;-76
2023/02/09 10:09:21;;;;;;;69.30;31.00;;;;;;;-2.76;98.57;100131.25;52751;1251;1016423;-78
2023/02/09 10:11:51;;;;;;;61.20;28.60;;;;;;;-2.68;96.46;100124.80;53228;1256;1049933;-78
2023/02/09 10:14:18;;;;;;;66.80;30.50;;;;;;;-2.60;97.02;100120.17;52812;1255;1059251;-78
2023/02/09 10:16:44;;;;;;;84.90;37.00;;;;;;;-2.51;97.44;100118.75;52898;1254;1016102;-78
2023/02/09 10:19:21;;;;;;;64.70;30.20;;;;;;;-2.41;97.96;100114.60;52916;1251;1075893;-77
2023/02/09 10:21:48;;;;;;;69.10;31.70;;;;;;;-2.26;97.34;100114.50;53088;1256;1064637;-75
2023/02/09 10:24:20;;;;;;;67.10;32.40;;;;;;;-2.09;96.06;100105.54;52701;1251;1016412;-76
2023/02/09 10:27:00;;;;;;;69.00;35.50;;;;;;;-1.97;95.27;100102.12;53737;1251;1070411;-77
2023/02/09 10:29:26;;;;;;;55.00;23.30;;;;;;;-1.87;93.76;100101.13;54126;1251;1068878;-76
2023/02/09 10:31:59;;;;;;;73.60;30.90;;;;;;;-1.81;93.39;100100.01;54129;1251;1015585;-76
2023/02/09 10:34:32;;;;;;;73.30;32.20;;;;;;;-1.73;93.74;100097.64;52907;1251;1062967;-76
2023/02/09 10:37:05;;;;;;;74.30;35.20;;;;;;;-1.61;93.38;100095.07;53499;1251;1074084;-76
2023/02/09 10:39:32;;;;;;;60.10;29.90;;;;;;;-1.52;92.34;100093.05;53006;1255;1071083;-77
2023/02/09 10:42:18;;;;;;;59.60;28.00;;;;;;;-1.45;92.54;100090.91;52854;1256;1015791;-77
2023/02/09 10:44:48;;;;;;;56.50;24.30;;;;;;;-1.38;92.10;100087.41;52623;1255;1053072;-77
2023/02/09 10:47:17;;;;;;;52.90;24.20;;;;;;;-1.36;91.11;100083.34;52614;1257;1016154;-76
2023/02/09 10:50:12;;;;;;;50.90;27.40;;;;;;;-1.32;91.41;100085.70;53114;1251;1015614;-78
2023/02/09 10:53:01;;;;;;;55.60;25.80;;;;;;;-1.26;91.63;100081.77;52947;1256;1050960;-77
2023/02/09 10:55:33;;;;;;;56.10;25.70;;;;;;;-1.22;91.39;100077.77;52755;1251;1043397;-79